KPBG/PBG METAR and TAF weather

Enter ICAO airport designator
Station Type Date Time Source
KPBG METAR 2019/07/20 04:53 UTC NOAA

KPBG 200453Z AUTO 00000KT 10SM CLR 28/22 A2973 RMK AO2 SLP067 T02780217 403330183


Station Type Date Time Source
KPBG Decoded METAR 2019/07/20 04:53 UTC NOAA

PLATTSBURGH INTERNATIONAL AIRPORT, NY, United States (KPBG) 44-39N 073-28W
Jul 20, 2019 - 12:53 AM EDT / 2019.07.20 0453 UTC
Wind: Calm:0
Visibility: 10 mile(s):0
Sky conditions: clear
Temperature: 82.0 F (27.8 C)
Dew Point: 71.1 F (21.7 C)
Relative Humidity: 69%
Pressure (altimeter): 29.73 in. Hg (1006 hPa)
ob: KPBG 200453Z AUTO 00000KT 10SM CLR 28/22 A2973 RMK AO2 SLP067 T02780217 403330183
cycle: 5

Station Type Date Time Source
KPBG TAF 2019/07/19 18:36 UTC NOAA

TAF KPBG 191731Z 1918/2018 17008KT P6SM SCT060
FM192000 25008KT P6SM SCT120

Example: see airport list